Terminal Aerodrome Forecast
Issued by NWS

Home | Current Version | Previous Version | Text Only | Print | Product List | Glossary On
Versions: 1 2 3 4 5 6 7 8 9 10 11 12 13 14 15 16 17 18 19 20 21 22 23 24 25 26 27 28 29 30 31 32 33 34 35 36 37 38 39 40 41 42 43 44 45 46 47 48
000
FTUS45 KGJT 251742
TAFRIL
TAFRIL
TAF
KRIL 251742Z 2518/2618 08003KT P6SM VCSH SCT018 OVC090
     FM252000 29008KT P6SM VCTS SCT045 BKN070CB
      TEMPO 2521/2601 VRB10G20KT -TSRA BKN040CB
     FM260300 14005KT P6SM SCT070 BKN120
     FM261500 VRB03KT P6SM FEW030 SCT090 BKN150=

USA.gov is the U.S. government's official web portal to all federal, state and local government web resources and services.